createdAt,value
2023-04-02T00:01:18.466Z,9.62
2023-04-02T00:03:45.428Z,9.58
2023-04-02T00:06:32.951Z,9.61
2023-04-02T00:09:15.273Z,9.39
2023-04-02T00:11:48.741Z,9.38
2023-04-02T00:14:36.862Z,9.34
2023-04-02T00:17:06.188Z,9.45
2023-04-02T00:19:41.942Z,9.44
2023-04-02T00:22:16.098Z,9.28
2023-04-02T00:24:43.292Z,9.32
2023-04-02T00:27:12.973Z,9.29
2023-04-02T00:29:48.058Z,9.27
2023-04-02T00:32:23.122Z,9.32
2023-04-02T00:34:50.822Z,9.29
2023-04-02T00:37:28.318Z,9.37
2023-04-02T00:40:07.356Z,9.42
2023-04-02T00:42:36.215Z,9.33
2023-04-02T00:45:04.393Z,9.19
2023-04-02T00:47:37.751Z,9.13
2023-04-02T00:50:14.642Z,8.98
2023-04-02T00:52:44.794Z,8.58
2023-04-02T00:55:21.764Z,8.41
2023-04-02T00:57:50.644Z,8.52
2023-04-02T01:03:13.369Z,8.61
2023-04-02T01:05:42.812Z,8.61
2023-04-02T01:08:22.527Z,8.65
2023-04-02T01:11:07.693Z,8.71
2023-04-02T01:13:43.550Z,8.74
2023-04-02T01:16:47.623Z,8.80
2023-04-02T01:19:34.401Z,8.88
2023-04-02T01:22:42.799Z,8.96
2023-04-02T01:25:18.071Z,8.91
2023-04-02T01:27:57.985Z,8.87
2023-04-02T01:30:25.842Z,8.78
2023-04-02T01:32:54.759Z,8.74
2023-04-02T01:35:22.972Z,8.75
2023-04-02T01:38:03.497Z,8.79
2023-04-02T01:40:52.397Z,8.79
2023-04-02T01:43:49.379Z,8.78
2023-04-02T01:46:32.253Z,8.75
2023-04-02T01:49:10.779Z,8.76
2023-04-02T01:51:43.770Z,8.76
2023-04-02T01:54:13.311Z,8.69
2023-04-02T01:56:41.611Z,8.65
2023-04-02T01:59:09.217Z,8.70
2023-04-02T02:01:48.686Z,8.66
2023-04-02T02:04:17.478Z,8.63
2023-04-02T02:06:45.901Z,8.66
2023-04-02T02:09:23.423Z,8.67
2023-04-02T02:11:51.770Z,8.62
2023-04-02T02:14:27.800Z,8.60
2023-04-02T02:17:01.636Z,8.62
2023-04-02T02:19:57.599Z,8.66
2023-04-02T02:22:37.732Z,8.62
2023-04-02T02:25:11.451Z,8.68
2023-04-02T02:27:49.854Z,8.77
2023-04-02T02:30:19.607Z,8.80
2023-04-02T02:33:14.557Z,8.87
2023-04-02T02:35:56.763Z,8.88
2023-04-02T02:38:35.324Z,8.98
2023-04-02T02:41:08.034Z,8.94
2023-04-02T02:43:39.298Z,8.98
2023-04-02T02:46:08.686Z,9.03
2023-04-02T02:48:39.617Z,9.05
2023-04-02T02:51:11.733Z,8.90
2023-04-02T02:53:55.630Z,8.95
2023-04-02T02:56:24.175Z,8.97
2023-04-02T02:58:53.046Z,8.89
2023-04-02T03:01:20.276Z,8.88
2023-04-02T03:03:52.207Z,8.98
2023-04-02T03:06:21.036Z,9.01
2023-04-02T03:08:53.957Z,9.06
2023-04-02T03:11:36.116Z,9.06
2023-04-02T03:14:15.094Z,8.94
2023-04-02T03:16:48.569Z,8.93
2023-04-02T03:19:35.238Z,9.01
2023-04-02T03:22:30.074Z,8.94
2023-04-02T03:25:16.585Z,8.94
2023-04-02T03:27:48.032Z,8.90
2023-04-02T03:30:47.628Z,8.81
2023-04-02T03:33:22.237Z,8.87
2023-04-02T03:36:13.569Z,8.76
2023-04-02T03:39:10.336Z,8.75
2023-04-02T03:41:57.577Z,8.66
2023-04-02T03:44:28.066Z,8.59
2023-04-02T03:47:36.736Z,8.64
2023-04-02T03:50:26.368Z,8.66
2023-04-02T03:52:53.251Z,8.58
2023-04-02T03:55:23.357Z,8.56
2023-04-02T03:57:57.248Z,8.53
2023-04-02T04:00:36.121Z,8.49
2023-04-02T04:03:16.689Z,8.39
2023-04-02T04:05:55.946Z,8.44
2023-04-02T04:08:27.557Z,8.35
2023-04-02T04:10:58.842Z,8.46
2023-04-02T04:13:39.097Z,8.44
2023-04-02T04:16:14.729Z,8.54
2023-04-02T04:18:49.878Z,8.55
2023-04-02T04:21:31.248Z,8.48
2023-04-02T04:24:06.137Z,8.42
2023-04-02T04:26:55.206Z,8.30
2023-04-02T04:29:46.946Z,8.27
2023-04-02T04:32:27.454Z,8.27
2023-04-02T04:35:37.047Z,8.18
2023-04-02T04:38:14.580Z,8.18
2023-04-02T04:41:05.414Z,8.38
2023-04-02T04:43:41.280Z,8.64
2023-04-02T04:46:23.219Z,8.88
2023-04-02T04:49:21.168Z,9.12
2023-04-02T04:52:09.538Z,9.50
2023-04-02T04:54:39.601Z,9.80
2023-04-02T04:57:18.053Z,10.31
2023-04-02T04:59:52.671Z,10.43
2023-04-02T05:02:33.573Z,10.77
2023-04-02T05:05:02.534Z,10.96
2023-04-02T05:07:35.314Z,11.06
2023-04-02T05:10:16.500Z,11.49
2023-04-02T05:12:54.993Z,11.52
2023-04-02T05:15:42.342Z,11.58
2023-04-02T05:18:18.379Z,11.60
2023-04-02T05:20:59.275Z,12.27
2023-04-02T05:23:30.117Z,12.33
2023-04-02T05:26:06.731Z,12.83
2023-04-02T05:28:40.554Z,12.92
2023-04-02T05:31:49.411Z,13.53
2023-04-02T05:34:25.281Z,13.66
2023-04-02T05:36:52.144Z,14.12
2023-04-02T05:39:23.097Z,14.15
2023-04-02T05:42:01.280Z,15.08
2023-04-02T05:44:36.345Z,14.85
2023-04-02T05:47:04.610Z,14.74
2023-04-02T05:49:40.623Z,14.63
2023-04-02T05:52:15.353Z,14.97
2023-04-02T05:54:52.587Z,15.00
2023-04-02T05:57:35.833Z,15.15
2023-04-02T06:00:18.025Z,15.71
2023-04-02T06:02:53.836Z,15.41
2023-04-02T06:05:29.034Z,14.55
2023-04-02T06:08:08.685Z,15.48
2023-04-02T06:10:45.686Z,15.95
2023-04-02T06:13:18.346Z,16.26
2023-04-02T06:15:47.245Z,16.81
2023-04-02T06:18:24.152Z,17.55
2023-04-02T06:20:52.066Z,17.71
2023-04-02T06:23:24.877Z,18.21
2023-04-02T06:25:54.502Z,18.37
2023-04-02T06:28:27.224Z,18.74
2023-04-02T06:30:59.837Z,19.09
2023-04-02T06:33:26.927Z,19.37
2023-04-02T06:35:56.317Z,19.86
2023-04-02T06:38:29.020Z,19.70
2023-04-02T06:41:02.954Z,19.04
2023-04-02T06:43:39.611Z,19.17
2023-04-02T06:46:14.057Z,19.13
2023-04-02T06:48:42.518Z,19.09
2023-04-02T06:51:14.453Z,18.66
2023-04-02T06:53:47.780Z,18.26
2023-04-02T06:56:27.960Z,18.23
2023-04-02T06:58:55.079Z,18.28
2023-04-02T07:01:29.608Z,17.97
2023-04-02T07:03:57.984Z,18.14
2023-04-02T07:06:25.057Z,18.72
2023-04-02T07:08:52.036Z,18.97
2023-04-02T07:11:22.534Z,19.43
2023-04-02T07:13:51.414Z,19.53
2023-04-02T07:16:21.359Z,19.34
2023-04-02T07:18:49.205Z,19.25
2023-04-02T07:21:16.039Z,19.29
2023-04-02T07:23:42.831Z,19.59
2023-04-02T07:26:15.058Z,19.86
2023-04-02T07:28:42.205Z,20.26
2023-04-02T07:31:28.881Z,20.54
2023-04-02T07:33:59.989Z,20.19
2023-04-02T07:36:29.449Z,20.45
2023-04-02T07:38:56.697Z,19.74
2023-04-02T07:41:23.895Z,20.44
2023-04-02T07:43:50.872Z,20.40
2023-04-02T07:46:20.378Z,19.74
2023-04-02T07:48:47.779Z,19.33
2023-04-02T07:51:20.737Z,19.11
2023-04-02T07:53:50.602Z,19.44
2023-04-02T07:56:19.746Z,19.65
2023-04-02T07:58:47.050Z,19.69
2023-04-02T08:01:26.072Z,19.31
2023-04-02T08:03:54.968Z,19.64
2023-04-02T08:06:22.852Z,18.50
2023-04-02T08:08:50.461Z,18.83
2023-04-02T08:11:17.452Z,18.98
2023-04-02T08:13:44.404Z,18.70
2023-04-02T08:16:11.916Z,18.87
2023-04-02T08:18:39.051Z,16.96
2023-04-02T08:21:08.905Z,16.90
2023-04-02T08:23:36.329Z,16.65
2023-04-02T08:26:03.822Z,17.04
2023-04-02T08:28:30.669Z,17.39
2023-04-02T08:30:57.989Z,17.51
2023-04-02T08:33:25.000Z,17.93
2023-04-02T08:35:52.009Z,17.13
2023-04-02T08:38:21.998Z,17.50
2023-04-02T08:40:56.730Z,17.70
2023-04-02T08:44:00.741Z,16.90
2023-04-02T08:46:42.381Z,18.10
2023-04-02T08:49:16.395Z,17.28
2023-04-02T08:51:45.241Z,16.62
2023-04-02T08:54:18.685Z,17.50
2023-04-02T08:57:04.454Z,16.79
2023-04-02T08:59:52.416Z,16.30
2023-04-02T09:02:41.128Z,16.18
2023-04-02T09:05:17.947Z,16.47
2023-04-02T09:07:47.407Z,16.72
2023-04-02T09:10:16.859Z,17.07
2023-04-02T09:12:47.365Z,17.75
2023-04-02T09:15:14.104Z,18.23
2023-04-02T09:17:53.091Z,18.64
2023-04-02T09:20:26.611Z,18.66
2023-04-02T09:22:54.413Z,18.81
2023-04-02T09:25:27.784Z,19.11
2023-04-02T09:27:57.295Z,19.32
2023-04-02T09:30:30.039Z,19.27
2023-04-02T09:32:59.022Z,19.36
2023-04-02T09:35:28.817Z,19.12
2023-04-02T09:38:07.550Z,19.56
2023-04-02T09:40:56.488Z,19.07
2023-04-02T09:43:28.684Z,19.19
2023-04-02T09:46:02.163Z,19.06
2023-04-02T09:48:33.838Z,19.43
2023-04-02T09:51:25.191Z,19.17
2023-04-02T09:54:08.590Z,19.46
2023-04-02T09:56:37.372Z,19.02
2023-04-02T09:59:13.120Z,18.72
2023-04-02T10:01:41.768Z,18.58
2023-04-02T10:04:38.713Z,18.01
2023-04-02T10:07:07.190Z,17.51
2023-04-02T10:09:37.197Z,17.86
2023-04-02T10:12:12.918Z,17.72
2023-04-02T10:14:48.517Z,18.38
2023-04-02T10:17:23.970Z,18.93
2023-04-02T10:20:06.306Z,19.36
2023-04-02T10:22:33.320Z,19.65
2023-04-02T10:25:00.197Z,19.65
2023-04-02T10:27:31.204Z,20.00
2023-04-02T10:30:13.064Z,19.63
2023-04-02T10:33:03.741Z,19.19
2023-04-02T10:36:05.877Z,20.02
2023-04-02T10:38:42.699Z,19.98
2023-04-02T10:41:34.225Z,19.66
2023-04-02T10:44:19.484Z,19.76
2023-04-02T10:47:02.850Z,19.84
2023-04-02T10:49:48.276Z,20.69
2023-04-02T10:52:40.546Z,19.13
2023-04-02T10:55:26.830Z,19.84
2023-04-02T10:57:57.406Z,19.91
2023-04-02T11:00:37.267Z,19.95
2023-04-02T11:03:20.449Z,19.53
2023-04-02T11:05:48.850Z,18.95
2023-04-02T11:08:32.052Z,18.86
2023-04-02T11:11:10.124Z,19.40
2023-04-02T11:13:43.029Z,19.77
2023-04-02T11:16:15.687Z,19.66
2023-04-02T11:18:44.993Z,19.63
2023-04-02T11:21:57.291Z,19.22
2023-04-02T11:24:34.147Z,19.02
2023-04-02T11:27:25.609Z,19.39
2023-04-02T11:30:17.097Z,19.49
2023-04-02T11:32:49.916Z,19.70
2023-04-02T11:35:32.152Z,19.77
2023-04-02T11:38:11.022Z,19.51
2023-04-02T11:40:46.853Z,19.12
2023-04-02T11:43:36.616Z,19.13
2023-04-02T11:46:29.361Z,19.19
2023-04-02T11:49:34.613Z,19.59
2023-04-02T11:52:11.452Z,19.57
2023-04-02T11:54:39.374Z,19.62
2023-04-02T11:57:43.972Z,19.18
2023-04-02T12:01:15.928Z,18.72
2023-04-02T12:03:51.810Z,18.54
2023-04-02T12:06:39.929Z,18.75
2023-04-02T12:09:29.520Z,18.45
2023-04-02T12:11:59.868Z,18.42
2023-04-02T12:14:35.766Z,18.36
2023-04-02T12:17:15.540Z,18.28
2023-04-02T12:19:48.882Z,18.40
2023-04-02T12:22:28.879Z,18.43
2023-04-02T12:25:00.898Z,18.48
2023-04-02T12:27:30.070Z,18.97
2023-04-02T12:30:12.232Z,19.19
2023-04-02T12:32:39.422Z,19.44
2023-04-02T12:35:08.490Z,19.42
2023-04-02T12:37:35.742Z,19.84
2023-04-02T12:40:16.459Z,19.67
2023-04-02T12:42:47.590Z,19.88
2023-04-02T12:45:31.359Z,20.15
2023-04-02T12:48:02.187Z,19.94
2023-04-02T12:50:29.511Z,19.68
2023-04-02T12:52:59.097Z,20.14
2023-04-02T12:55:27.676Z,19.68
2023-04-02T12:57:59.964Z,20.01
2023-04-02T13:00:32.254Z,19.94
2023-04-02T13:03:03.142Z,19.89
2023-04-02T13:05:36.506Z,19.92
2023-04-02T13:08:04.641Z,19.39
2023-04-02T13:10:32.101Z,19.77
2023-04-02T13:13:01.135Z,19.68
2023-04-02T13:15:37.069Z,19.62
2023-04-02T13:18:13.320Z,19.78
2023-04-02T13:20:42.047Z,19.93
2023-04-02T13:23:27.745Z,19.43
2023-04-02T13:25:55.529Z,19.83
2023-04-02T13:28:23.246Z,19.59
2023-04-02T13:30:50.670Z,19.09
2023-04-02T13:33:18.041Z,18.65
2023-04-02T13:35:45.680Z,18.56
2023-04-02T13:38:13.062Z,18.50
2023-04-02T13:40:40.296Z,17.88
2023-04-02T13:43:16.207Z,17.64
2023-04-02T13:45:43.367Z,17.61
2023-04-02T13:48:14.957Z,17.43
2023-04-02T13:50:42.769Z,17.24
2023-04-02T13:53:21.333Z,17.31
2023-04-02T13:55:49.186Z,17.39
2023-04-02T13:58:16.289Z,17.65
2023-04-02T14:00:43.765Z,17.92
2023-04-02T14:03:16.740Z,17.97
2023-04-02T14:05:55.600Z,18.15
2023-04-02T14:08:30.562Z,17.98
2023-04-02T14:11:22.330Z,17.93
2023-04-02T14:14:33.675Z,17.73
2023-04-02T14:17:18.508Z,17.42
2023-04-02T14:20:04.287Z,17.60
2023-04-02T14:22:51.069Z,17.35
2023-04-02T14:25:40.082Z,16.98
2023-04-02T14:28:29.928Z,16.99
2023-04-02T14:31:15.678Z,16.85
2023-04-02T14:33:57.606Z,16.92
2023-04-02T14:36:29.149Z,16.75
2023-04-02T14:39:03.355Z,16.85
2023-04-02T14:41:38.077Z,17.13
2023-04-02T14:44:08.046Z,17.32
2023-04-02T14:46:38.125Z,17.42
2023-04-02T14:49:16.902Z,17.57
2023-04-02T14:51:51.776Z,17.74
2023-04-02T14:54:55.286Z,17.69
2023-04-02T14:57:55.701Z,17.59
2023-04-02T15:00:38.300Z,17.36
2023-04-02T15:03:08.655Z,17.38
2023-04-02T15:05:50.899Z,17.24
2023-04-02T15:08:48.320Z,17.30
2023-04-02T15:11:37.673Z,17.44
2023-04-02T15:14:21.664Z,17.45
2023-04-02T15:16:50.481Z,17.16
2023-04-02T15:19:25.566Z,17.22
2023-04-02T15:22:15.415Z,17.39
2023-04-02T15:25:17.990Z,17.41
2023-04-02T15:28:23.063Z,17.43
2023-04-02T15:30:54.670Z,17.29
2023-04-02T15:33:28.817Z,17.08
2023-04-02T15:36:07.961Z,16.92
2023-04-02T15:38:41.280Z,16.88
2023-04-02T15:41:23.604Z,16.75
2023-04-02T15:44:13.526Z,16.48
2023-04-02T15:46:56.329Z,16.36
2023-04-02T15:49:36.229Z,16.31
2023-04-02T15:52:34.783Z,16.24
2023-04-02T15:55:36.620Z,16.15
2023-04-02T15:58:16.130Z,16.13
2023-04-02T16:01:02.567Z,16.12
2023-04-02T16:04:00.655Z,16.01
2023-04-02T16:07:00.950Z,15.89
2023-04-02T16:09:37.783Z,15.84
2023-04-02T16:12:21.308Z,15.80
2023-04-02T16:14:49.621Z,15.75
2023-04-02T16:17:28.579Z,15.72
2023-04-02T16:20:18.876Z,15.67
2023-04-02T16:23:00.468Z,15.63
2023-04-02T16:25:34.531Z,15.71
2023-04-02T16:28:21.906Z,15.69
2023-04-02T16:31:16.292Z,15.60
2023-04-02T16:34:06.092Z,15.62
2023-04-02T16:36:58.273Z,15.35
2023-04-02T16:39:41.561Z,15.30
2023-04-02T16:42:36.848Z,15.14
2023-04-02T16:45:12.320Z,15.10
2023-04-02T16:47:42.163Z,15.04
2023-04-02T16:50:31.114Z,15.06
2023-04-02T16:53:14.316Z,14.98
2023-04-02T16:56:02.654Z,14.99
2023-04-02T16:58:41.500Z,15.09
2023-04-02T17:01:17.226Z,15.06
2023-04-02T17:04:02.516Z,14.97
2023-04-02T17:06:29.422Z,14.87
2023-04-02T17:09:20.287Z,14.67
2023-04-02T17:11:55.683Z,14.67
2023-04-02T17:19:00.856Z,14.50
2023-04-02T17:21:52.479Z,14.46
2023-04-02T17:25:03.651Z,14.36
2023-04-02T17:28:17.130Z,14.40
2023-04-02T17:30:54.790Z,14.27
2023-04-02T17:34:10.044Z,14.24
2023-04-02T17:36:47.951Z,14.14
2023-04-02T17:39:31.145Z,14.06
2023-04-02T17:42:35.292Z,14.01
2023-04-02T17:45:16.450Z,13.98
2023-04-02T17:48:33.146Z,13.90
2023-04-02T17:51:22.129Z,13.82
2023-04-02T17:54:04.724Z,13.75
2023-04-02T17:56:40.132Z,13.70
2023-04-02T17:59:49.738Z,13.64
2023-04-02T18:02:36.651Z,13.62
2023-04-02T18:05:25.198Z,13.59
2023-04-02T18:08:12.637Z,13.44
2023-04-02T18:10:51.424Z,13.32
2023-04-02T18:13:35.923Z,13.30
2023-04-02T18:16:14.712Z,13.24
2023-04-02T18:18:46.618Z,13.18
2023-04-02T18:21:17.087Z,13.10
2023-04-02T18:24:23.661Z,12.93
2023-04-02T18:27:49.270Z,12.75
2023-04-02T18:30:22.348Z,12.63
2023-04-02T18:33:37.567Z,12.49
2023-04-02T18:36:27.851Z,12.38
2023-04-02T18:39:03.051Z,12.35
2023-04-02T18:41:36.337Z,12.27
2023-04-02T18:44:19.534Z,12.26
2023-04-02T18:46:55.281Z,12.24
2023-04-02T18:49:43.882Z,12.18
2023-04-02T18:52:17.180Z,12.08
2023-04-02T18:54:49.924Z,12.07
2023-04-02T18:57:22.715Z,12.06
2023-04-02T18:59:55.338Z,12.04
2023-04-02T19:02:37.647Z,12.08
2023-04-02T19:05:21.860Z,12.12
2023-04-02T19:07:52.631Z,12.13
2023-04-02T19:10:31.644Z,12.13
2023-04-02T19:12:58.542Z,12.13
2023-04-02T19:16:03.607Z,12.27
2023-04-02T19:19:09.737Z,12.18
2023-04-02T19:21:53.319Z,12.01
2023-04-02T19:24:53.551Z,11.66
2023-04-02T19:27:39.538Z,11.59
2023-04-02T19:30:30.747Z,11.70
2023-04-02T19:33:21.558Z,11.72
2023-04-02T19:35:57.611Z,11.63
2023-04-02T19:38:29.901Z,11.51
2023-04-02T19:41:27.465Z,11.60
2023-04-02T19:43:56.112Z,11.58
2023-04-02T19:46:25.570Z,11.62
2023-04-02T19:49:04.240Z,11.69
2023-04-02T19:51:31.307Z,11.62
2023-04-02T19:53:58.232Z,11.61
2023-04-02T19:56:25.268Z,11.63
2023-04-02T19:58:52.299Z,11.65
2023-04-02T20:01:19.463Z,11.62
2023-04-02T20:03:46.852Z,11.61
2023-04-02T20:06:13.844Z,11.55
2023-04-02T20:08:41.052Z,11.40
2023-04-02T20:11:08.230Z,11.43
2023-04-02T20:13:35.925Z,11.33
2023-04-02T20:16:05.018Z,11.37
2023-04-02T20:18:32.766Z,11.28
2023-04-02T20:21:04.846Z,11.28
2023-04-02T20:23:34.340Z,11.33
2023-04-02T20:26:02.960Z,11.24
2023-04-02T20:28:32.182Z,11.25
2023-04-02T20:31:08.896Z,11.31
2023-04-02T20:33:36.851Z,11.29
2023-04-02T20:36:09.443Z,11.09
2023-04-02T20:38:37.041Z,11.09
2023-04-02T20:41:06.272Z,11.11
2023-04-02T20:43:34.065Z,11.16
2023-04-02T20:46:04.984Z,11.12
2023-04-02T20:48:32.888Z,11.07
2023-04-02T20:51:02.288Z,11.11
2023-04-02T20:53:31.441Z,11.21
2023-04-02T20:56:07.446Z,11.15
2023-04-02T20:58:36.130Z,11.23
2023-04-02T21:01:11.310Z,11.17
2023-04-02T21:03:40.084Z,11.19
2023-04-02T21:06:13.281Z,11.21
2023-04-02T21:08:40.363Z,11.21
2023-04-02T21:11:09.076Z,11.35
2023-04-02T21:13:37.371Z,11.35
2023-04-02T21:16:12.367Z,11.25
2023-04-02T21:18:39.364Z,11.30
2023-04-02T21:21:07.927Z,11.25
2023-04-02T21:23:35.121Z,11.26
2023-04-02T21:26:06.378Z,11.26
2023-04-02T21:28:34.915Z,11.31
2023-04-02T21:31:10.967Z,11.35
2023-04-02T21:33:46.918Z,11.17
2023-04-02T21:36:40.282Z,11.05
2023-04-02T21:39:10.813Z,11.18
2023-04-02T21:41:43.112Z,10.96
2023-04-02T21:44:14.842Z,10.93
2023-04-02T21:46:43.212Z,10.79
2023-04-02T21:49:16.669Z,10.62
2023-04-02T21:51:45.838Z,10.62
2023-04-02T21:54:13.931Z,10.58
2023-04-02T21:56:43.295Z,10.75
2023-04-02T21:59:12.233Z,10.79
2023-04-02T22:01:45.184Z,10.79
2023-04-02T22:04:18.342Z,10.84
2023-04-02T22:06:46.055Z,10.85
2023-04-02T22:09:16.087Z,10.89
2023-04-02T22:11:46.165Z,10.91
2023-04-02T22:14:13.740Z,10.91
2023-04-02T22:16:41.349Z,10.95
2023-04-02T22:19:11.909Z,11.04
2023-04-02T22:21:40.050Z,10.96
2023-04-02T22:24:09.697Z,10.90
2023-04-02T22:26:37.435Z,10.96
2023-04-02T22:29:05.611Z,11.04
2023-04-02T22:31:35.497Z,10.99
2023-04-02T22:34:03.567Z,11.00
2023-04-02T22:36:32.668Z,11.08
2023-04-02T22:39:01.133Z,11.15
2023-04-02T22:41:32.253Z,11.19
2023-04-02T22:44:00.606Z,11.16
2023-04-02T22:46:29.187Z,11.19
2023-04-02T22:48:56.451Z,11.23
2023-04-02T22:51:25.510Z,11.27
2023-04-02T22:53:55.139Z,11.25
2023-04-02T22:56:28.918Z,11.36
2023-04-02T22:58:55.926Z,11.07
2023-04-02T23:01:26.656Z,11.01
2023-04-02T23:03:55.676Z,10.99
2023-04-02T23:06:24.012Z,11.11
2023-04-02T23:08:51.710Z,11.09
2023-04-02T23:11:27.719Z,11.17
2023-04-02T23:13:56.876Z,11.04
2023-04-02T23:16:27.055Z,11.06
2023-04-02T23:18:55.122Z,11.14
2023-04-02T23:21:22.941Z,11.13
2023-04-02T23:23:51.103Z,11.13
2023-04-02T23:26:21.969Z,11.11
2023-04-02T23:28:50.491Z,11.05
2023-04-02T23:31:20.654Z,11.16
2023-04-02T23:33:47.709Z,11.07
2023-04-02T23:36:32.604Z,11.05
2023-04-02T23:39:09.610Z,11.16
2023-04-02T23:41:39.265Z,11.29
2023-04-02T23:44:07.096Z,11.26
2023-04-02T23:46:35.494Z,11.13
2023-04-02T23:49:02.886Z,11.15
2023-04-02T23:51:34.056Z,11.17
2023-04-02T23:54:02.214Z,11.08
2023-04-02T23:56:29.354Z,11.05
2023-04-02T23:58:56.825Z,11.01
